Time;durP1;ratioP1;P1;durP2;ratioP2;P2;SDS_P1;SDS_P2;PMS_P1;PMS_P2;Temp;Humidity;BMP_temperature;BMP_pressure;BME280_temperature;BME280_humidity;BME280_pressure;Samples;Min_cycle;Max_cycle;Signal;HPM_P1;HPM_P2
2022/07/15 00:02:17;;;;;;;3.23;1.50;;;21.20;52.50;;;;;;4995797;28;20942;-71
2022/07/15 00:04:44;;;;;;;3.27;1.87;;;21.20;52.70;;;;;;4995872;28;21009;-72
2022/07/15 00:07:10;;;;;;;3.47;1.87;;;21.10;52.80;;;;;;4996064;28;20479;-71
2022/07/15 00:12:23;;;;;;;7.37;1.97;;;21.00;53.10;;;;;;4996236;28;20479;-73
2022/07/15 00:14:50;;;;;;;5.03;2.37;;;21.00;53.50;;;;;;4996019;28;20498;-73
2022/07/15 00:17:16;;;;;;;2.37;1.37;;;20.90;53.60;;;;;;4995599;28;20869;-72
2022/07/15 00:19:43;;;;;;;2.10;1.90;;;20.90;53.80;;;;;;4995631;28;20921;-72
2022/07/15 00:22:11;;;;;;;3.40;1.73;;;20.80;54.00;;;;;;4995733;28;20459;-73
2022/07/15 00:24:38;;;;;;;3.20;1.50;;;20.80;54.10;;;;;;4995713;28;20452;-72
2022/07/15 00:27:05;;;;;;;2.70;1.50;;;20.80;54.30;;;;;;4995541;28;20475;-71
2022/07/15 00:29:33;;;;;;;5.60;1.70;;;20.70;54.50;;;;;;4994717;28;20449;-72
2022/07/15 00:31:59;;;;;;;6.03;1.60;;;20.70;54.60;;;;;;4995231;28;20460;-72
2022/07/15 00:34:26;;;;;;;2.00;1.80;;;20.60;54.70;;;;;;4995482;28;20449;-72
2022/07/15 00:36:53;;;;;;;5.90;1.97;;;20.60;54.90;;;;;;4995420;28;20495;-72
2022/07/15 00:39:20;;;;;;;4.17;2.00;;;20.60;55.10;;;;;;4995122;28;20957;-72
2022/07/15 00:41:47;;;;;;;4.73;1.90;;;20.50;55.20;;;;;;4995651;28;20428;-72
2022/07/15 00:44:13;;;;;;;3.63;2.27;;;20.60;55.70;;;;;;4995300;28;20448;-72
2022/07/15 00:46:42;;;;;;;6.33;2.00;;;20.50;55.90;;;;;;4995263;28;20468;-71
2022/07/15 00:49:10;;;;;;;6.70;2.17;;;20.50;56.20;;;;;;4995295;28;20460;-72
2022/07/15 00:51:38;;;;;;;4.03;1.80;;;20.50;56.30;;;;;;4995276;28;20448;-72
2022/07/15 00:54:06;;;;;;;2.83;2.00;;;20.50;56.50;;;;;;4995025;28;20484;-73
2022/07/15 00:56:38;;;;;;;6.17;2.50;;;20.50;56.70;;;;;;4995012;28;20464;-71
2022/07/15 00:59:07;;;;;;;5.63;2.50;;;20.50;57.00;;;;;;4995064;28;20445;-72
2022/07/15 01:01:34;;;;;;;5.53;1.90;;;20.50;57.20;;;;;;4994846;28;20938;-72
2022/07/15 01:04:03;;;;;;;6.93;2.00;;;20.40;57.40;;;;;;4995009;28;20528;-73
2022/07/15 01:06:30;;;;;;;2.33;1.83;;;20.40;57.50;;;;;;4994938;28;20473;-72
2022/07/15 01:08:57;;;;;;;4.60;2.20;;;20.40;57.70;;;;;;4995717;28;20448;-72
2022/07/15 01:11:24;;;;;;;3.37;2.37;;;20.40;58.00;;;;;;4994914;28;20452;-72
2022/07/15 01:13:51;;;;;;;4.77;2.43;;;20.30;58.50;;;;;;4994796;28;20479;-72
2022/07/15 01:16:18;;;;;;;4.60;1.97;;;20.30;58.90;;;;;;4994784;28;20456;-72
2022/07/15 01:18:45;;;;;;;6.13;2.20;;;20.20;59.30;;;;;;4994802;28;20459;-72
2022/07/15 01:21:13;;;;;;;2.00;1.80;;;20.20;59.60;;;;;;4994777;28;20453;-72
2022/07/15 01:23:42;;;;;;;4.83;2.47;;;20.20;59.70;;;;;;4994711;28;20455;-72
2022/07/15 01:26:10;;;;;;;4.63;2.30;;;20.20;59.90;;;;;;4994604;28;20506;-71
2022/07/15 01:28:37;;;;;;;2.47;1.67;;;20.20;59.90;;;;;;4994884;28;20448;-72
2022/07/15 01:31:04;;;;;;;4.73;2.20;;;20.10;60.60;;;;;;4994533;28;20452;-71
2022/07/15 01:33:31;;;;;;;5.90;1.93;;;20.00;61.00;;;;;;4994483;28;20464;-72
2022/07/15 01:35:59;;;;;;;3.10;2.30;;;20.00;61.50;;;;;;5001494;28;20456;-72
2022/07/15 01:38:27;;;;;;;6.80;2.60;;;19.90;61.90;;;;;;4994467;28;20499;-72
2022/07/15 01:40:54;;;;;;;6.73;2.47;;;19.80;62.20;;;;;;4994238;28;20452;-71
2022/07/15 01:43:21;;;;;;;4.80;2.37;;;19.80;63.20;;;;;;4994473;28;20444;-72
2022/07/15 01:45:48;;;;;;;6.90;2.30;;;19.80;64.00;;;;;;4994373;28;20520;-72
2022/07/15 01:50:57;;;;;;;2.67;2.10;;;19.80;63.90;;;;;;4993230;28;20428;-72
2022/07/15 01:53:24;;;;;;;4.87;2.40;;;19.90;63.80;;;;;;4994323;28;20494;-73
2022/07/15 01:55:53;;;;;;;4.33;1.80;;;19.90;63.50;;;;;;4993924;28;20449;-72
2022/07/15 01:58:20;;;;;;;6.93;1.90;;;20.00;63.40;;;;;;4994254;28;20480;-72
2022/07/15 02:00:49;;;;;;;2.70;1.73;;;20.00;63.50;;;;;;4993873;28;20843;-72
2022/07/15 02:03:16;;;;;;;9.70;2.30;;;20.10;63.40;;;;;;4994169;28;20457;-72
2022/07/15 02:05:43;;;;;;;4.40;2.07;;;20.10;64.20;;;;;;4993973;28;20970;-72
2022/07/15 02:08:10;;;;;;;7.03;2.00;;;20.10;63.50;;;;;;4994139;28;20464;-72
2022/07/15 02:10:40;;;;;;;9.23;2.33;;;20.20;63.50;;;;;;4994309;28;20451;-72
2022/07/15 02:13:08;;;;;;;2.97;2.10;;;20.20;63.20;;;;;;4995056;28;20468;-73
2022/07/15 02:15:35;;;;;;;5.97;2.20;;;20.10;63.10;;;;;;4994112;28;20448;-73
2022/07/15 02:18:02;;;;;;;6.17;2.10;;;20.20;64.40;;;;;;4993868;28;20476;-72
2022/07/15 02:20:29;;;;;;;4.77;2.37;;;20.10;63.60;;;;;;4994109;28;20459;-72
2022/07/15 02:22:57;;;;;;;5.30;2.40;;;20.10;63.70;;;;;;4993930;28;20456;-72
2022/07/15 02:25:25;;;;;;;4.40;2.40;;;20.10;63.60;;;;;;4993879;28;20440;-73
2022/07/15 02:27:53;;;;;;;3.13;2.10;;;20.00;63.50;;;;;;4993497;28;21002;-71
2022/07/15 02:30:21;;;;;;;7.20;2.53;;;19.90;63.20;;;;;;4993819;28;20484;-71
2022/07/15 02:32:48;;;;;;;5.50;2.27;;;19.80;63.60;;;;;;4993498;28;20463;-71
2022/07/15 02:35:15;;;;;;;4.40;2.10;;;19.80;63.50;;;;;;4993854;28;20463;-72
2022/07/15 02:37:42;;;;;;;7.50;2.50;;;19.70;63.60;;;;;;4993833;28;20480;-72
2022/07/15 02:40:10;;;;;;;5.17;1.90;;;19.60;63.60;;;;;;4993751;28;20448;-71
2022/07/15 02:42:37;;;;;;;6.80;2.30;;;19.60;63.90;;;;;;4993749;28;20459;-72
2022/07/15 02:45:05;;;;;;;5.40;2.47;;;19.60;63.80;;;;;;4993804;28;20455;-72
2022/07/15 02:47:34;;;;;;;4.90;2.50;;;19.50;63.50;;;;;;4993403;28;20847;-72
2022/07/15 02:50:01;;;;;;;5.83;1.90;;;19.50;63.80;;;;;;4993505;28;20950;-72
2022/07/15 02:52:28;;;;;;;2.53;2.17;;;19.50;63.80;;;;;;4996170;28;20818;-72
2022/07/15 02:54:55;;;;;;;10.03;2.40;;;19.50;63.90;;;;;;4997335;28;20570;-72
2022/07/15 02:57:21;;;;;;;5.87;1.93;;;19.50;64.10;;;;;;4996897;28;20468;-72
2022/07/15 02:59:48;;;;;;;6.63;2.07;;;19.40;64.20;;;;;;4997261;28;20449;-72
2022/07/15 03:02:15;;;;;;;4.87;1.63;;;19.40;64.30;;;;;;4997258;28;20804;-72
2022/07/15 03:04:43;;;;;;;4.53;1.90;;;19.30;64.30;;;;;;4997209;28;20462;-72
2022/07/15 03:07:10;;;;;;;5.40;2.20;;;19.30;64.50;;;;;;4997178;28;20562;-71
2022/07/15 03:09:37;;;;;;;3.07;1.80;;;19.30;64.50;;;;;;4997066;28;20448;-72
2022/07/15 03:12:04;;;;;;;2.50;1.90;;;19.30;64.40;;;;;;4996878;28;20455;-71
2022/07/15 03:14:31;;;;;;;7.87;2.47;;;19.30;65.00;;;;;;4997009;28;20488;-72
2022/07/15 03:16:58;;;;;;;4.17;1.90;;;19.30;64.20;;;;;;4996903;28;20472;-72
2022/07/15 03:19:25;;;;;;;7.80;2.37;;;19.30;64.00;;;;;;4996657;28;20472;-71
2022/07/15 03:21:53;;;;;;;7.20;2.20;;;19.20;64.30;;;;;;4996904;28;20448;-72
2022/07/15 03:24:20;;;;;;;5.70;2.30;;;19.10;64.80;;;;;;4996861;28;20815;-72
2022/07/15 03:26:46;;;;;;;5.27;2.33;;;19.10;65.30;;;;;;4996472;28;20859;-71
2022/07/15 03:29:15;;;;;;;3.77;1.87;;;19.00;65.50;;;;;;4996813;28;20448;-73
2022/07/15 03:31:42;;;;;;;5.07;2.20;;;19.00;66.10;;;;;;4996350;28;20848;-72
2022/07/15 03:34:09;;;;;;;4.40;1.90;;;18.90;66.30;;;;;;4996637;28;20505;-72
2022/07/15 03:36:37;;;;;;;5.90;2.70;;;18.90;66.40;;;;;;4996565;28;20834;-71
2022/07/15 03:39:05;;;;;;;8.87;2.17;;;18.90;66.70;;;;;;4996546;28;20483;-72
2022/07/15 03:41:32;;;;;;;8.00;2.60;;;18.90;66.80;;;;;;4996170;28;20965;-72
2022/07/15 03:43:59;;;;;;;6.20;2.40;;;18.90;66.70;;;;;;4996526;28;20447;-72
2022/07/15 03:46:26;;;;;;;5.30;2.40;;;18.90;67.40;;;;;;4996341;28;21005;-71
2022/07/15 03:48:53;;;;;;;3.93;2.03;;;18.90;66.50;;;;;;4996346;28;20452;-71
2022/07/15 03:51:20;;;;;;;9.10;2.73;;;18.90;66.60;;;;;;4996393;28;20460;-72
2022/07/15 03:53:47;;;;;;;7.57;2.90;;;18.90;66.70;;;;;;4996204;28;20495;-72
2022/07/15 03:56:15;;;;;;;7.10;2.80;;;18.90;66.90;;;;;;4996130;28;20452;-71
2022/07/15 03:58:44;;;;;;;6.10;2.60;;;18.80;66.70;;;;;;4996206;28;20459;-72
2022/07/15 04:01:10;;;;;;;7.90;3.07;;;18.80;67.00;;;;;;4995977;28;20451;-71
2022/07/15 04:03:37;;;;;;;6.80;2.97;;;18.70;67.20;;;;;;4996050;28;20452;-71
2022/07/15 04:06:05;;;;;;;6.10;2.50;;;18.70;67.60;;;;;;4995888;28;20961;-72
2022/07/15 04:08:31;;;;;;;5.57;2.23;;;18.70;67.70;;;;;;4996187;28;20444;-71
2022/07/15 04:10:58;;;;;;;10.97;2.40;;;18.70;67.70;;;;;;4996060;28;20455;-70
2022/07/15 04:13:26;;;;;;;5.37;2.90;;;18.70;67.90;;;;;;4995603;28;20938;-70
2022/07/15 04:15:53;;;;;;;9.50;3.50;;;18.70;67.90;;;;;;4995951;28;20450;-70
2022/07/15 04:18:20;;;;;;;8.50;3.23;;;18.60;67.90;;;;;;4995721;28;20481;-70
2022/07/15 04:20:47;;;;;;;8.53;2.77;;;18.60;68.20;;;;;;4995538;28;20448;-70
2022/07/15 04:23:13;;;;;;;5.40;3.33;;;18.50;68.40;;;;;;4995750;28;20444;-70
2022/07/15 04:25:41;;;;;;;6.67;3.80;;;18.40;68.80;;;;;;4995336;28;20942;-70
2022/07/15 04:28:07;;;;;;;5.47;3.07;;;18.30;69.70;;;;;;4995658;28;20954;-70
2022/07/15 04:30:36;;;;;;;4.90;3.33;;;18.10;70.60;;;;;;4995382;28;20808;-70
2022/07/15 04:33:03;;;;;;;8.10;3.17;;;18.00;71.40;;;;;;4995263;28;20464;-70
2022/07/15 04:35:29;;;;;;;7.20;3.60;;;17.90;72.50;;;;;;4995533;28;20448;-70
2022/07/15 04:37:56;;;;;;;5.13;3.63;;;17.90;73.20;;;;;;4995450;28;20475;-70
2022/07/15 04:40:23;;;;;;;4.90;3.10;;;17.90;73.90;;;;;;4995440;28;20467;-70
2022/07/15 04:42:50;;;;;;;7.10;3.40;;;17.90;74.50;;;;;;4995381;28;20510;-70
2022/07/15 04:45:17;;;;;;;8.70;3.60;;;17.90;75.20;;;;;;4995281;28;20480;-70
2022/07/15 04:47:45;;;;;;;6.63;3.27;;;17.90;75.20;;;;;;4995220;28;20484;-70
2022/07/15 04:52:56;;;;;;;9.33;3.47;;;18.00;75.10;;;;;;4995314;28;20475;-70
2022/07/15 04:55:23;;;;;;;7.20;4.30;;;18.10;75.00;;;;;;4995110;28;20512;-71
2022/07/15 04:57:49;;;;;;;9.57;3.80;;;18.10;74.70;;;;;;4995067;28;20468;-70
2022/07/15 05:00:16;;;;;;;6.20;3.30;;;18.20;75.00;;;;;;4995101;28;20819;-70
2022/07/15 05:02:44;;;;;;;8.23;4.00;;;18.20;75.00;;;;;;4994674;28;20813;-70
2022/07/15 05:05:11;;;;;;;3.70;2.90;;;18.30;75.10;;;;;;4994866;28;20484;-70
2022/07/15 05:07:38;;;;;;;12.00;4.00;;;18.30;74.90;;;;;;4994893;28;20468;-70
2022/07/15 05:10:06;;;;;;;8.73;3.57;;;18.40;74.90;;;;;;4994840;28;20459;-70
2022/07/15 05:12:34;;;;;;;5.90;3.40;;;18.40;74.20;;;;;;4994961;28;20455;-70
2022/07/15 05:15:00;;;;;;;7.93;3.43;;;18.50;74.00;;;;;;4994585;28;20909;-70
2022/07/15 05:17:27;;;;;;;7.03;3.03;;;18.60;73.40;;;;;;4994799;28;20463;-70
2022/07/15 05:19:57;;;;;;;8.47;3.17;;;18.70;72.90;;;;;;4995036;28;20488;-70
2022/07/15 05:22:25;;;;;;;8.90;3.07;;;18.70;72.80;;;;;;4995312;28;20432;-70
2022/07/15 05:24:52;;;;;;;7.90;3.30;;;18.80;72.60;;;;;;4995104;28;20587;-70
2022/07/15 05:27:18;;;;;;;7.87;3.40;;;18.90;72.30;;;;;;4995188;28;20468;-70
2022/07/15 05:29:45;;;;;;;7.70;2.97;;;18.90;71.20;;;;;;4995286;28;20463;-70
2022/07/15 05:32:12;;;;;;;19.97;3.50;;;19.00;71.20;;;;;;4994689;28;20471;-70
2022/07/15 05:34:39;;;;;;;8.20;2.97;;;19.10;71.00;;;;;;4994592;28;20483;-70
2022/07/15 05:37:07;;;;;;;5.23;2.93;;;19.30;71.00;;;;;;4994742;28;20494;-70
2022/07/15 05:39:35;;;;;;;6.33;3.57;;;19.40;70.10;;;;;;4994540;28;20448;-70
2022/07/15 05:42:02;;;;;;;8.20;3.67;;;19.50;69.90;;;;;;4994606;28;20459;-70
2022/07/15 05:44:29;;;;;;;5.33;2.67;;;19.60;69.70;;;;;;4994630;28;20484;-70
2022/07/15 05:46:55;;;;;;;6.60;2.53;;;19.60;68.70;;;;;;4995518;28;21000;-71
2022/07/15 05:49:23;;;;;;;6.97;2.83;;;19.60;68.00;;;;;;4994637;28;20455;-70
2022/07/15 05:51:49;;;;;;;7.23;3.13;;;19.60;68.00;;;;;;4994278;28;20820;-70
2022/07/15 05:54:17;;;;;;;6.33;2.63;;;19.60;68.30;;;;;;4994526;28;20448;-70
2022/07/15 05:56:44;;;;;;;7.60;2.60;;;19.70;68.30;;;;;;4994423;28;20475;-70
2022/07/15 05:59:11;;;;;;;6.67;2.80;;;19.70;67.80;;;;;;4994450;28;20452;-70
2022/07/15 06:01:38;;;;;;;4.20;2.47;;;19.60;68.00;;;;;;4994356;28;20453;-70
2022/07/15 06:04:05;;;;;;;6.50;2.23;;;19.60;68.10;;;;;;4994155;28;20554;-70
2022/07/15 06:06:31;;;;;;;5.63;2.80;;;19.60;68.30;;;;;;4994335;28;20468;-70
2022/07/15 06:08:58;;;;;;;7.93;2.83;;;19.60;68.50;;;;;;4994151;28;20444;-70
2022/07/15 06:11:26;;;;;;;9.03;3.40;;;19.50;68.20;;;;;;4994178;28;20455;-70
2022/07/15 06:13:53;;;;;;;6.07;2.60;;;19.50;68.50;;;;;;4994282;28;20428;-70
2022/07/15 06:16:20;;;;;;;3.93;2.37;;;19.50;68.50;;;;;;4994268;28;20448;-70
2022/07/15 06:18:48;;;;;;;10.77;3.37;;;19.50;68.40;;;;;;4994135;28;20475;-70
2022/07/15 06:21:15;;;;;;;5.63;2.27;;;19.50;67.90;;;;;;5011992;28;20895;-70
2022/07/15 06:23:42;;;;;;;4.20;2.03;;;19.50;68.20;;;;;;5013837;28;20868;-70
2022/07/15 06:26:09;;;;;;;5.97;2.30;;;19.50;68.70;;;;;;5014200;28;20450;-70
2022/07/15 06:28:37;;;;;;;7.27;2.30;;;19.70;68.90;;;;;;5017694;28;20451;-71
2022/07/15 06:31:04;;;;;;;6.33;1.83;;;19.80;68.20;;;;;;5017471;28;20462;-70
2022/07/15 06:33:31;;;;;;;5.10;1.60;;;19.90;67.90;;;;;;5017292;28;20434;-71
2022/07/15 06:35:57;;;;;;;6.13;2.33;;;20.00;67.20;;;;;;5017373;28;20928;-70
2022/07/15 06:38:24;;;;;;;2.80;1.43;;;20.20;66.50;;;;;;5017404;28;20467;-71
2022/07/15 06:40:51;;;;;;;3.10;1.50;;;20.20;65.20;;;;;;5018802;28;20451;-71
2022/07/15 06:43:18;;;;;;;4.83;2.10;;;20.30;64.50;;;;;;5020536;28;20440;-71
2022/07/15 06:45:46;;;;;;;4.70;1.80;;;20.30;63.10;;;;;;5016936;28;20871;-71
2022/07/15 06:48:13;;;;;;;4.10;1.67;;;20.30;63.80;;;;;;5017279;28;20471;-71
2022/07/15 06:50:39;;;;;;;5.93;1.83;;;20.30;63.90;;;;;;5017545;28;20443;-71
2022/07/15 06:53:06;;;;;;;5.47;1.40;;;20.40;64.20;;;;;;5016979;28;20454;-71
2022/07/15 06:55:33;;;;;;;4.60;1.57;;;20.60;62.90;;;;;;5017279;28;20447;-70
2022/07/15 06:58:00;;;;;;;4.77;1.37;;;20.70;61.70;;;;;;5017007;28;20463;-70
2022/07/15 07:00:27;;;;;;;3.03;1.50;;;20.80;61.30;;;;;;5017040;28;20542;-71
2022/07/15 07:02:55;;;;;;;3.80;1.37;;;20.80;60.90;;;;;;5017211;28;20455;-71
2022/07/15 07:05:22;;;;;;;3.40;1.37;;;20.90;60.10;;;;;;5017023;28;20490;-72
2022/07/15 07:07:48;;;;;;;10.00;1.93;;;20.90;60.40;;;;;;5017051;28;20506;-71
2022/07/15 07:10:15;;;;;;;3.60;1.60;;;21.00;60.00;;;;;;5016752;28;20443;-70
2022/07/15 07:12:42;;;;;;;5.23;1.93;;;21.00;59.80;;;;;;5016941;28;20454;-70
2022/07/15 07:15:09;;;;;;;3.30;1.10;;;21.10;59.40;;;;;;5016843;28;20443;-70
2022/07/15 07:17:36;;;;;;;7.60;1.60;;;21.30;59.00;;;;;;5016495;28;20521;-71
2022/07/15 07:20:05;;;;;;;4.50;1.23;;;21.40;58.90;;;;;;5016961;28;20443;-71
2022/07/15 07:22:32;;;;;;;6.57;1.37;;;21.60;58.90;;;;;;5016475;28;20909;-71
2022/07/15 07:24:59;;;;;;;4.80;1.67;;;21.70;58.50;;;;;;5016399;28;20505;-71
2022/07/15 07:27:26;;;;;;;5.23;1.20;;;21.90;57.40;;;;;;5016625;28;20471;-71
2022/07/15 07:29:53;;;;;;;5.20;1.27;;;22.00;56.60;;;;;;5016418;28;20452;-72
2022/07/15 07:32:19;;;;;;;3.50;1.17;;;22.20;56.80;;;;;;5016223;28;20455;-72
2022/07/15 07:34:46;;;;;;;5.23;1.50;;;22.40;56.10;;;;;;5016476;28;20443;-72
2022/07/15 07:37:14;;;;;;;4.00;1.03;;;22.40;54.80;;;;;;5015919;28;20467;-71
2022/07/15 07:39:41;;;;;;;3.87;1.30;;;22.60;55.30;;;;;;5016436;28;20439;-71
2022/07/15 07:42:08;;;;;;;6.97;2.00;;;22.90;55.20;;;;;;5016113;28;20816;-72
2022/07/15 07:44:36;;;;;;;6.17;1.53;;;23.00;54.20;;;;;;5015992;28;20857;-71
2022/07/15 07:47:03;;;;;;;2.27;0.90;;;23.10;53.50;;;;;;5016143;28;20471;-72
2022/07/15 07:49:30;;;;;;;3.93;1.50;;;23.30;53.10;;;;;;5016186;28;20449;-71
2022/07/15 07:51:57;;;;;;;2.80;1.03;;;23.60;51.40;;;;;;5016067;28;20462;-72
2022/07/15 07:54:25;;;;;;;4.00;1.07;;;23.90;50.00;;;;;;5015940;28;20427;-72
2022/07/15 07:56:52;;;;;;;2.93;1.27;;;24.20;49.10;;;;;;5015552;28;21011;-71
2022/07/15 07:59:19;;;;;;;4.40;1.60;;;24.60;49.50;;;;;;5016360;28;20443;-72
2022/07/15 08:01:46;;;;;;;2.13;1.00;;;25.00;49.00;;;;;;5016046;28;20432;-71
2022/07/15 08:04:14;;;;;;;3.40;1.23;;;25.10;47.50;;;;;;5015787;28;20788;-72
2022/07/15 08:06:40;;;;;;;4.13;1.13;;;24.80;47.40;;;;;;5015735;28;20522;-71
2022/07/15 08:09:07;;;;;;;6.63;1.40;;;24.50;47.70;;;;;;5015736;28;20442;-72
2022/07/15 08:11:35;;;;;;;5.27;0.70;;;24.30;47.60;;;;;;5015370;28;20452;-72
2022/07/15 08:14:02;;;;;;;4.20;1.00;;;23.90;46.20;;;;;;5015553;28;20451;-72
2022/07/15 08:16:29;;;;;;;1.73;0.80;;;23.50;47.50;;;;;;5015164;28;20510;-71
2022/07/15 08:18:57;;;;;;;2.40;1.13;;;23.10;48.30;;;;;;5015417;28;20448;-72
2022/07/15 08:21:23;;;;;;;5.10;1.30;;;22.70;49.40;;;;;;5015554;28;20455;-72
2022/07/15 08:23:50;;;;;;;3.60;0.90;;;22.30;49.40;;;;;;5015418;28;20454;-72
2022/07/15 08:26:22;;;;;;;5.27;1.30;;;22.10;50.00;;;;;;5015024;28;20490;-71
2022/07/15 08:28:52;;;;;;;6.17;1.33;;;21.80;50.50;;;;;;5015334;28;20443;-72
2022/07/15 08:31:20;;;;;;;4.03;1.20;;;21.70;51.50;;;;;;5015040;28;20936;-72
2022/07/15 08:33:46;;;;;;;2.90;1.30;;;21.80;51.00;;;;;;5015295;28;20442;-72
2022/07/15 08:36:13;;;;;;;1.47;1.07;;;22.10;52.30;;;;;;5015317;28;20435;-71
2022/07/15 08:38:40;;;;;;;3.93;1.23;;;22.50;51.50;;;;;;5015392;28;20455;-71
2022/07/15 08:41:07;;;;;;;3.90;1.67;;;22.90;50.90;;;;;;5014977;28;20902;-71
2022/07/15 08:43:34;;;;;;;3.90;1.03;;;23.30;48.90;;;;;;5015259;28;20432;-70
2022/07/15 08:46:03;;;;;;;2.23;0.90;;;23.70;47.60;;;;;;5015897;28;20478;-70
2022/07/15 08:48:30;;;;;;;3.33;1.37;;;24.10;46.90;;;;;;5014375;28;20467;-71
2022/07/15 08:51:00;;;;;;;2.90;0.70;;;24.50;46.60;;;;;;5014905;28;20482;-71
2022/07/15 08:53:30;;;;;;;2.40;0.83;;;25.00;46.70;;;;;;5015234;28;20493;-71
2022/07/15 08:55:57;;;;;;;2.53;0.97;;;25.50;45.40;;;;;;5015459;28;20547;-71
2022/07/15 08:58:24;;;;;;;3.90;1.40;;;26.00;43.10;;;;;;5014679;28;20976;-71
2022/07/15 09:00:51;;;;;;;2.67;1.00;;;26.00;42.20;;;;;;5015079;28;20443;-71
2022/07/15 09:03:19;;;;;;;6.43;1.37;;;26.00;41.80;;;;;;5015074;28;20451;-71
2022/07/15 09:05:46;;;;;;;2.37;1.10;;;26.00;43.80;;;;;;5015022;28;20486;-71
2022/07/15 09:08:14;;;;;;;4.97;1.33;;;25.90;42.60;;;;;;5014882;28;20478;-70
2022/07/15 09:10:49;;;;;;;3.57;1.00;;;25.90;42.50;;;;;;5015594;28;20459;-70
2022/07/15 09:13:31;;;;;;;4.63;1.00;;;26.10;42.20;;;;;;5017579;28;20455;-70
2022/07/15 09:15:59;;;;;;;3.07;1.07;;;26.00;42.20;;;;;;5018405;28;20420;-70
2022/07/15 09:18:29;;;;;;;4.80;1.17;;;25.90;42.90;;;;;;5015903;28;20467;-70
2022/07/15 09:20:56;;;;;;;2.50;0.97;;;25.70;42.50;;;;;;4998386;28;20969;-71
2022/07/15 09:23:30;;;;;;;2.30;1.03;;;25.40;41.40;;;;;;4994833;28;20452;-70
2022/07/15 09:25:58;;;;;;;3.83;1.33;;;25.10;43.50;;;;;;4994696;28;20472;-70
2022/07/15 09:28:38;;;;;;;7.63;1.50;;;25.10;42.80;;;;;;4994646;28;21047;-70
2022/07/15 09:34:00;;;;;;;2.80;0.77;;;25.30;41.10;;;;;;4994784;28;20426;-70
2022/07/15 09:36:29;;;;;;;4.10;1.10;;;25.60;41.20;;;;;;4994619;28;20432;-70
2022/07/15 09:38:57;;;;;;;9.00;1.50;;;25.80;40.40;;;;;;4994926;28;20440;-69
2022/07/15 09:41:31;;;;;;;4.83;1.03;;;26.00;40.50;;;;;;4994710;28;20444;-70
2022/07/15 09:44:01;;;;;;;2.07;1.17;;;26.10;38.30;;;;;;4994332;28;20436;-69
2022/07/15 09:46:30;;;;;;;3.97;1.10;;;25.90;38.50;;;;;;4994332;28;20484;-70
2022/07/15 09:48:58;;;;;;;5.40;0.90;;;26.00;39.80;;;;;;4994428;28;20444;-70
2022/07/15 09:51:25;;;;;;;2.33;1.00;;;26.00;38.80;;;;;;4994537;28;20455;-69
2022/07/15 09:53:52;;;;;;;4.30;1.27;;;26.00;39.50;;;;;;4994290;28;20953;-69
2022/07/15 09:56:26;;;;;;;2.93;1.07;;;26.10;39.50;;;;;;4994582;28;20452;-70
2022/07/15 09:58:53;;;;;;;2.20;1.00;;;26.30;38.90;;;;;;4994555;28;20564;-69
2022/07/15 10:01:20;;;;;;;2.10;0.93;;;26.70;39.50;;;;;;4994587;28;20452;-69
2022/07/15 10:03:48;;;;;;;4.37;1.27;;;27.00;36.80;;;;;;4994380;28;20449;-69
2022/07/15 10:06:16;;;;;;;3.07;1.00;;;27.20;36.10;;;;;;4993998;28;20842;-70
2022/07/15 10:08:48;;;;;;;2.20;0.80;;;27.30;35.90;;;;;;4994310;28;20506;-69
2022/07/15 10:11:15;;;;;;;3.83;1.20;;;27.70;35.80;;;;;;4994284;28;20487;-69
2022/07/15 10:14:21;;;;;;;3.43;1.20;;;28.00;35.60;;;;;;4994229;28;20455;-69
2022/07/15 10:17:08;;;;;;;1.80;0.60;;;28.50;36.10;;;;;;4994357;28;20480;-68
2022/07/15 10:19:53;;;;;;;1.33;0.80;;;29.40;33.70;;;;;;4994109;28;20917;-68
2022/07/15 10:22:31;;;;;;;3.40;1.27;;;30.00;32.10;;;;;;4994547;28;20440;-68
2022/07/15 10:25:09;;;;;;;1.90;0.90;;;30.00;30.10;;;;;;4994158;28;20458;-68
2022/07/15 10:27:47;;;;;;;2.43;1.23;;;29.70;30.90;;;;;;4994133;28;20468;-68
2022/07/15 10:30:20;;;;;;;2.60;0.93;;;29.70;32.50;;;;;;4993825;28;20551;-69
2022/07/15 10:33:14;;;;;;;2.83;1.00;;;30.10;31.70;;;;;;4993742;28;20462;-68
2022/07/15 10:35:44;;;;;;;2.23;0.93;;;29.90;30.50;;;;;;4993590;28;20858;-68
2022/07/15 10:38:33;;;;;;;7.40;0.83;;;29.60;31.20;;;;;;4993953;28;20483;-68
2022/07/15 10:41:05;;;;;;;2.50;0.97;;;29.30;31.90;;;;;;4993958;28;20441;-68
2022/07/15 10:43:49;;;;;;;3.07;1.00;;;28.90;32.00;;;;;;4993997;28;20429;-68
2022/07/15 10:46:27;;;;;;;2.20;0.80;;;28.30;33.60;;;;;;4993916;28;20464;-69
2022/07/15 10:49:32;;;;;;;2.50;0.80;;;28.80;33.10;;;;;;4993885;28;20515;-69
2022/07/15 10:52:14;;;;;;;1.83;0.70;;;29.00;32.90;;;;;;4993941;28;20443;-68
2022/07/15 10:54:49;;;;;;;2.53;1.13;;;29.90;32.40;;;;;;4993961;28;20448;-69
2022/07/15 10:57:19;;;;;;;3.10;0.80;;;31.10;29.80;;;;;;4993926;28;20471;-71
2022/07/15 10:59:50;;;;;;;1.40;0.93;;;31.70;29.90;;;;;;4993701;28;20499;-70
2022/07/15 11:02:20;;;;;;;3.87;1.47;;;32.20;29.20;;;;;;4993945;28;20440;-71
2022/07/15 11:04:49;;;;;;;6.00;1.47;;;32.50;28.30;;;;;;4993871;28;20518;-71
2022/07/15 11:07:27;;;;;;;3.23;1.40;;;32.70;28.30;;;;;;4993491;28;20992;-71
2022/07/15 11:09:56;;;;;;;2.53;1.13;;;33.50;26.90;;;;;;4993462;28;20972;-71
2022/07/15 11:12:25;;;;;;;2.40;1.30;;;34.60;26.80;;;;;;4994790;28;20442;-72
2022/07/15 11:14:54;;;;;;;4.10;1.30;;;34.90;23.90;;;;;;4997291;28;20455;-71
2022/07/15 11:17:25;;;;;;;3.67;1.00;;;34.40;24.70;;;;;;4996956;28;20467;-71
2022/07/15 11:19:56;;;;;;;2.37;0.83;;;33.70;25.90;;;;;;4997222;28;20444;-70
2022/07/15 11:22:24;;;;;;;3.37;1.50;;;32.80;25.90;;;;;;4997173;28;20435;-70
2022/07/15 11:24:52;;;;;;;2.00;1.37;;;31.90;27.50;;;;;;4997123;28;20458;-70
2022/07/15 11:27:20;;;;;;;4.30;1.60;;;31.20;28.20;;;;;;4996779;28;20495;-70
2022/07/15 11:29:50;;;;;;;4.17;1.03;;;30.90;28.30;;;;;;4996846;28;20938;-70
2022/07/15 11:32:19;;;;;;;6.10;1.00;;;31.30;28.80;;;;;;4996800;28;20463;-71
2022/07/15 11:34:49;;;;;;;2.73;0.97;;;31.90;27.50;;;;;;4996953;28;20516;-71
2022/07/15 11:37:20;;;;;;;4.57;1.50;;;32.30;26.70;;;;;;4996957;28;20467;-71
2022/07/15 11:39:48;;;;;;;2.87;1.00;;;33.00;26.60;;;;;;4996947;28;20844;-71
2022/07/15 11:45:04;;;;;;;2.83;1.30;;;35.50;25.00;;;;;;4997294;28;20403;-71
2022/07/15 11:47:31;;;;;;;2.00;1.20;;;36.30;22.00;;;;;;4996913;28;20491;-71
2022/07/15 11:50:02;;;;;;;2.70;0.80;;;36.40;22.40;;;;;;4996514;28;20945;-71
2022/07/15 11:52:30;;;;;;;5.00;1.10;;;36.80;22.70;;;;;;4996534;28;20456;-71
2022/07/15 11:54:57;;;;;;;3.80;1.37;;;37.00;21.20;;;;;;4997230;28;20440;-71
2022/07/15 11:57:24;;;;;;;1.30;0.80;;;37.50;22.10;;;;;;4997002;28;20308;-71
2022/07/15 11:59:53;;;;;;;2.47;0.90;;;38.10;21.90;;;;;;4996571;28;20212;-72
2022/07/15 12:02:19;;;;;;;4.68;1.30;;;38.80;21.80;;;;;;4996589;28;20197;-72
2022/07/15 12:04:47;;;;;;;3.50;1.48;;;38.80;19.50;;;;;;4996493;28;20212;-73
2022/07/15 12:07:14;;;;;;;6.30;1.40;;;38.40;20.40;;;;;;4996108;28;20764;-72
2022/07/15 12:09:43;;;;;;;6.38;1.27;;;38.00;20.00;;;;;;4996404;28;20283;-71
2022/07/15 12:12:10;;;;;;;3.33;1.10;;;38.00;21.40;;;;;;4997101;28;20208;-73
2022/07/15 12:14:37;;;;;;;2.40;1.02;;;38.30;21.00;;;;;;4996205;28;20227;-73
2022/07/15 12:17:05;;;;;;;2.50;1.08;;;38.80;19.40;;;;;;4996337;28;20221;-72
2022/07/15 12:19:33;;;;;;;4.25;1.13;;;38.70;19.70;;;;;;4996142;28;20193;-72
2022/07/15 12:22:04;;;;;;;3.47;1.25;;;38.40;20.30;;;;;;4995903;28;20601;-72
2022/07/15 12:24:39;;;;;;;2.95;0.95;;;38.60;20.90;;;;;;4995810;28;20185;-73
2022/07/15 12:27:08;;;;;;;2.92;0.93;;;39.50;21.00;;;;;;4996029;28;20224;-72
2022/07/15 12:29:35;;;;;;;4.32;0.80;;;39.80;19.30;;;;;;4995660;28;20689;-72
2022/07/15 12:32:05;;;;;;;2.38;1.20;;;39.50;19.00;;;;;;4995593;28;20219;-72
2022/07/15 12:34:50;;;;;;;4.30;1.08;;;38.90;19.70;;;;;;4995831;28;20204;-72
2022/07/15 12:37:19;;;;;;;3.37;1.13;;;37.90;19.90;;;;;;4995782;28;20228;-72
2022/07/15 12:39:59;;;;;;;3.83;1.50;;;37.40;20.70;;;;;;4995689;28;20205;-72
2022/07/15 12:42:30;;;;;;;9.07;1.53;;;37.10;21.10;;;;;;4996091;28;20561;-72
2022/07/15 12:45:08;;;;;;;3.00;1.00;;;36.20;21.20;;;;;;4995960;28;20447;-70
2022/07/15 12:47:34;;;;;;;2.07;1.10;;;35.30;22.50;;;;;;4996275;28;20495;-70
2022/07/15 12:50:01;;;;;;;4.00;1.40;;;34.60;23.80;;;;;;4995702;28;20447;-69
2022/07/15 12:52:33;;;;;;;3.30;1.23;;;33.80;24.00;;;;;;4995512;28;20574;-69
2022/07/15 12:55:13;;;;;;;3.13;1.20;;;33.20;25.10;;;;;;4995236;28;20941;-69
2022/07/15 12:57:42;;;;;;;6.50;1.77;;;32.50;25.20;;;;;;4995294;28;20558;-69
2022/07/15 13:00:13;;;;;;;6.30;1.40;;;31.40;26.10;;;;;;4995377;28;20451;-69
2022/07/15 13:03:02;;;;;;;7.20;1.13;;;30.50;28.30;;;;;;4995282;28;20467;-69
2022/07/15 13:05:31;;;;;;;5.67;0.90;;;30.80;28.20;;;;;;4995081;28;20899;-69
2022/07/15 13:07:58;;;;;;;3.93;1.03;;;31.50;27.00;;;;;;4994908;28;20526;-69